sensor_id;sensor_type;location;lat;lon;timestamp;P1;durP1;ratioP1;P2;durP2;ratioP2
55065;SDS011;40964;42.114;24.220;2023-07-28T00:02:02;4.53;;;3.97;;
55065;SDS011;40964;42.114;24.220;2023-07-28T00:04:28;8.38;;;3.92;;
55065;SDS011;40964;42.114;24.220;2023-07-28T00:06:54;7.10;;;4.13;;
55065;SDS011;40964;42.114;24.220;2023-07-28T00:09:19;4.55;;;3.83;;
55065;SDS011;40964;42.114;24.220;2023-07-28T00:11:45;5.10;;;3.80;;
55065;SDS011;40964;42.114;24.220;2023-07-28T00:14:10;3.60;;;3.30;;
55065;SDS011;40964;42.114;24.220;2023-07-28T00:16:35;4.13;;;3.65;;
55065;SDS011;40964;42.114;24.220;2023-07-28T00:19:01;4.53;;;4.05;;
55065;SDS011;40964;42.114;24.220;2023-07-28T00:21:26;3.85;;;3.55;;
55065;SDS011;40964;42.114;24.220;2023-07-28T00:23:52;6.55;;;4.25;;
55065;SDS011;40964;42.114;24.220;2023-07-28T00:26:17;4.07;;;3.67;;
55065;SDS011;40964;42.114;24.220;2023-07-28T00:28:43;4.93;;;4.07;;
55065;SDS011;40964;42.114;24.220;2023-07-28T00:31:08;6.13;;;4.00;;
55065;SDS011;40964;42.114;24.220;2023-07-28T00:33:34;6.65;;;4.10;;
55065;SDS011;40964;42.114;24.220;2023-07-28T00:35:59;6.80;;;4.38;;
55065;SDS011;40964;42.114;24.220;2023-07-28T00:38:24;5.38;;;4.13;;
55065;SDS011;40964;42.114;24.220;2023-07-28T00:40:50;4.00;;;3.60;;
55065;SDS011;40964;42.114;24.220;2023-07-28T00:43:15;5.15;;;4.43;;
55065;SDS011;40964;42.114;24.220;2023-07-28T00:45:41;4.38;;;3.97;;
55065;SDS011;40964;42.114;24.220;2023-07-28T00:48:08;5.75;;;4.68;;
55065;SDS011;40964;42.114;24.220;2023-07-28T00:50:37;5.18;;;4.07;;
55065;SDS011;40964;42.114;24.220;2023-07-28T00:53:03;4.22;;;3.83;;
55065;SDS011;40964;42.114;24.220;2023-07-28T00:55:29;5.43;;;3.95;;
55065;SDS011;40964;42.114;24.220;2023-07-28T00:57:54;5.05;;;4.35;;
55065;SDS011;40964;42.114;24.220;2023-07-28T01:00:20;4.35;;;3.60;;
55065;SDS011;40964;42.114;24.220;2023-07-28T01:02:45;3.92;;;3.55;;
55065;SDS011;40964;42.114;24.220;2023-07-28T01:05:11;4.88;;;3.63;;
55065;SDS011;40964;42.114;24.220;2023-07-28T01:07:40;4.22;;;3.80;;
55065;SDS011;40964;42.114;24.220;2023-07-28T01:10:17;3.85;;;3.45;;
55065;SDS011;40964;42.114;24.220;2023-07-28T01:12:47;6.57;;;3.83;;
55065;SDS011;40964;42.114;24.220;2023-07-28T01:15:13;4.88;;;3.90;;
55065;SDS011;40964;42.114;24.220;2023-07-28T01:17:40;9.55;;;4.10;;
55065;SDS011;40964;42.114;24.220;2023-07-28T01:20:06;5.82;;;3.97;;
55065;SDS011;40964;42.114;24.220;2023-07-28T01:28:01;6.47;;;4.18;;
55065;SDS011;40964;42.114;24.220;2023-07-28T01:30:28;5.32;;;3.80;;
55065;SDS011;40964;42.114;24.220;2023-07-28T01:32:55;5.28;;;3.78;;
55065;SDS011;40964;42.114;24.220;2023-07-28T01:35:21;4.05;;;3.30;;
55065;SDS011;40964;42.114;24.220;2023-07-28T01:37:47;5.22;;;4.68;;
55065;SDS011;40964;42.114;24.220;2023-07-28T01:40:16;4.40;;;3.70;;
55065;SDS011;40964;42.114;24.220;2023-07-28T01:42:42;5.72;;;4.18;;
55065;SDS011;40964;42.114;24.220;2023-07-28T01:45:08;4.60;;;3.90;;
55065;SDS011;40964;42.114;24.220;2023-07-28T01:47:33;6.63;;;4.05;;
55065;SDS011;40964;42.114;24.220;2023-07-28T01:49:59;6.45;;;4.05;;
55065;SDS011;40964;42.114;24.220;2023-07-28T01:52:24;6.22;;;4.20;;
55065;SDS011;40964;42.114;24.220;2023-07-28T01:54:50;4.13;;;3.70;;
55065;SDS011;40964;42.114;24.220;2023-07-28T01:57:15;4.18;;;3.63;;
55065;SDS011;40964;42.114;24.220;2023-07-28T01:59:41;5.88;;;4.13;;
55065;SDS011;40964;42.114;24.220;2023-07-28T02:02:06;4.20;;;3.80;;
55065;SDS011;40964;42.114;24.220;2023-07-28T02:04:32;4.32;;;3.85;;
55065;SDS011;40964;42.114;24.220;2023-07-28T02:06:57;7.93;;;3.78;;
55065;SDS011;40964;42.114;24.220;2023-07-28T02:09:22;4.63;;;3.90;;
55065;SDS011;40964;42.114;24.220;2023-07-28T02:11:48;5.93;;;3.90;;
55065;SDS011;40964;42.114;24.220;2023-07-28T02:14:13;6.13;;;4.22;;
55065;SDS011;40964;42.114;24.220;2023-07-28T02:16:39;5.45;;;4.57;;
55065;SDS011;40964;42.114;24.220;2023-07-28T02:19:04;5.82;;;4.30;;
55065;SDS011;40964;42.114;24.220;2023-07-28T02:21:30;5.38;;;4.32;;
55065;SDS011;40964;42.114;24.220;2023-07-28T02:23:55;5.25;;;4.25;;
55065;SDS011;40964;42.114;24.220;2023-07-28T02:26:21;6.75;;;5.65;;
55065;SDS011;40964;42.114;24.220;2023-07-28T02:28:46;6.30;;;5.10;;
55065;SDS011;40964;42.114;24.220;2023-07-28T02:31:11;5.05;;;4.32;;
55065;SDS011;40964;42.114;24.220;2023-07-28T02:33:37;6.40;;;4.47;;
55065;SDS011;40964;42.114;24.220;2023-07-28T02:36:05;4.93;;;4.43;;
55065;SDS011;40964;42.114;24.220;2023-07-28T02:38:31;4.32;;;3.92;;
55065;SDS011;40964;42.114;24.220;2023-07-28T02:40:56;4.20;;;3.80;;
55065;SDS011;40964;42.114;24.220;2023-07-28T02:43:22;3.85;;;3.47;;
55065;SDS011;40964;42.114;24.220;2023-07-28T02:45:48;4.65;;;3.60;;
55065;SDS011;40964;42.114;24.220;2023-07-28T02:48:18;5.57;;;4.15;;
55065;SDS011;40964;42.114;24.220;2023-07-28T02:50:49;4.68;;;4.20;;
55065;SDS011;40964;42.114;24.220;2023-07-28T02:53:16;4.25;;;3.80;;
55065;SDS011;40964;42.114;24.220;2023-07-28T02:55:44;4.97;;;3.67;;
55065;SDS011;40964;42.114;24.220;2023-07-28T02:58:11;4.75;;;3.50;;
55065;SDS011;40964;42.114;24.220;2023-07-28T03:00:37;5.55;;;3.92;;
55065;SDS011;40964;42.114;24.220;2023-07-28T03:03:04;4.03;;;3.47;;
55065;SDS011;40964;42.114;24.220;2023-07-28T03:05:33;5.40;;;3.95;;
55065;SDS011;40964;42.114;24.220;2023-07-28T03:07:58;8.30;;;3.90;;
55065;SDS011;40964;42.114;24.220;2023-07-28T03:10:24;5.22;;;3.97;;
55065;SDS011;40964;42.114;24.220;2023-07-28T03:12:50;5.40;;;4.15;;
55065;SDS011;40964;42.114;24.220;2023-07-28T03:15:16;6.80;;;4.15;;
55065;SDS011;40964;42.114;24.220;2023-07-28T03:17:41;6.72;;;4.35;;
55065;SDS011;40964;42.114;24.220;2023-07-28T03:20:07;7.35;;;4.35;;
55065;SDS011;40964;42.114;24.220;2023-07-28T03:22:32;9.18;;;4.38;;
55065;SDS011;40964;42.114;24.220;2023-07-28T03:24:58;6.28;;;4.25;;
55065;SDS011;40964;42.114;24.220;2023-07-28T03:27:23;4.93;;;4.40;;
55065;SDS011;40964;42.114;24.220;2023-07-28T03:29:50;5.97;;;3.85;;
55065;SDS011;40964;42.114;24.220;2023-07-28T03:32:15;4.15;;;3.63;;
55065;SDS011;40964;42.114;24.220;2023-07-28T03:34:41;4.53;;;3.70;;
55065;SDS011;40964;42.114;24.220;2023-07-28T03:37:07;7.35;;;4.20;;
55065;SDS011;40964;42.114;24.220;2023-07-28T03:39:32;4.18;;;3.78;;
55065;SDS011;40964;42.114;24.220;2023-07-28T03:41:58;6.00;;;3.80;;
55065;SDS011;40964;42.114;24.220;2023-07-28T03:44:23;6.40;;;3.92;;
55065;SDS011;40964;42.114;24.220;2023-07-28T03:46:49;5.70;;;4.00;;
55065;SDS011;40964;42.114;24.220;2023-07-28T03:49:14;4.35;;;3.85;;
55065;SDS011;40964;42.114;24.220;2023-07-28T03:51:40;4.20;;;3.67;;
55065;SDS011;40964;42.114;24.220;2023-07-28T03:54:05;8.10;;;3.75;;
55065;SDS011;40964;42.114;24.220;2023-07-28T03:56:31;4.13;;;3.65;;
55065;SDS011;40964;42.114;24.220;2023-07-28T03:58:56;4.45;;;4.00;;
55065;SDS011;40964;42.114;24.220;2023-07-28T04:01:21;6.57;;;3.55;;
55065;SDS011;40964;42.114;24.220;2023-07-28T04:03:47;4.90;;;4.07;;
55065;SDS011;40964;42.114;24.220;2023-07-28T04:06:13;4.15;;;3.63;;
55065;SDS011;40964;42.114;24.220;2023-07-28T04:08:41;3.40;;;3.10;;
55065;SDS011;40964;42.114;24.220;2023-07-28T04:11:07;22.92;;;12.18;;
55065;SDS011;40964;42.114;24.220;2023-07-28T04:13:35;17.20;;;9.15;;
55065;SDS011;40964;42.114;24.220;2023-07-28T04:16:01;11.90;;;7.35;;
55065;SDS011;40964;42.114;24.220;2023-07-28T04:18:26;3.72;;;3.30;;
55065;SDS011;40964;42.114;24.220;2023-07-28T04:20:52;5.75;;;3.17;;
55065;SDS011;40964;42.114;24.220;2023-07-28T04:23:18;6.38;;;3.50;;
55065;SDS011;40964;42.114;24.220;2023-07-28T04:25:43;3.80;;;3.45;;
55065;SDS011;40964;42.114;24.220;2023-07-28T04:28:09;3.40;;;3.08;;
55065;SDS011;40964;42.114;24.220;2023-07-28T04:30:35;6.18;;;3.28;;
55065;SDS011;40964;42.114;24.220;2023-07-28T04:33:00;7.55;;;2.63;;
55065;SDS011;40964;42.114;24.220;2023-07-28T04:35:26;7.03;;;3.13;;
55065;SDS011;40964;42.114;24.220;2023-07-28T04:37:51;4.13;;;3.10;;
55065;SDS011;40964;42.114;24.220;2023-07-28T04:40:17;3.65;;;3.33;;
55065;SDS011;40964;42.114;24.220;2023-07-28T04:42:42;3.10;;;2.65;;
55065;SDS011;40964;42.114;24.220;2023-07-28T04:45:08;3.65;;;3.33;;
55065;SDS011;40964;42.114;24.220;2023-07-28T04:47:34;5.55;;;3.35;;
55065;SDS011;40964;42.114;24.220;2023-07-28T04:49:59;3.88;;;3.47;;
55065;SDS011;40964;42.114;24.220;2023-07-28T04:52:25;3.90;;;3.58;;
55065;SDS011;40964;42.114;24.220;2023-07-28T04:54:50;3.55;;;3.13;;
55065;SDS011;40964;42.114;24.220;2023-07-28T04:57:16;3.60;;;3.30;;
55065;SDS011;40964;42.114;24.220;2023-07-28T04:59:43;3.33;;;3.03;;
55065;SDS011;40964;42.114;24.220;2023-07-28T05:02:08;6.45;;;4.35;;
55065;SDS011;40964;42.114;24.220;2023-07-28T05:04:34;3.50;;;3.20;;
55065;SDS011;40964;42.114;24.220;2023-07-28T05:07:01;4.25;;;3.20;;
55065;SDS011;40964;42.114;24.220;2023-07-28T05:09:27;3.78;;;3.22;;
55065;SDS011;40964;42.114;24.220;2023-07-28T05:11:54;5.32;;;4.03;;
55065;SDS011;40964;42.114;24.220;2023-07-28T05:14:19;5.95;;;5.05;;
55065;SDS011;40964;42.114;24.220;2023-07-28T05:16:45;11.10;;;7.68;;
55065;SDS011;40964;42.114;24.220;2023-07-28T05:19:12;13.52;;;7.32;;
55065;SDS011;40964;42.114;24.220;2023-07-28T05:21:38;6.53;;;5.80;;
55065;SDS011;40964;42.114;24.220;2023-07-28T05:24:03;6.53;;;5.55;;
55065;SDS011;40964;42.114;24.220;2023-07-28T05:26:29;9.93;;;6.05;;
55065;SDS011;40964;42.114;24.220;2023-07-28T05:28:54;6.30;;;5.50;;
55065;SDS011;40964;42.114;24.220;2023-07-28T05:31:19;5.35;;;4.68;;
55065;SDS011;40964;42.114;24.220;2023-07-28T05:33:45;4.57;;;4.18;;
55065;SDS011;40964;42.114;24.220;2023-07-28T05:36:10;7.95;;;5.43;;
55065;SDS011;40964;42.114;24.220;2023-07-28T05:38:36;7.53;;;6.07;;
55065;SDS011;40964;42.114;24.220;2023-07-28T05:41:03;11.27;;;4.20;;
55065;SDS011;40964;42.114;24.220;2023-07-28T05:43:29;7.70;;;4.65;;
55065;SDS011;40964;42.114;24.220;2023-07-28T05:46:00;4.93;;;2.88;;
55065;SDS011;40964;42.114;24.220;2023-07-28T05:48:26;3.33;;;3.03;;
55065;SDS011;40964;42.114;24.220;2023-07-28T05:50:51;5.35;;;3.75;;
55065;SDS011;40964;42.114;24.220;2023-07-28T05:53:18;4.10;;;3.35;;
55065;SDS011;40964;42.114;24.220;2023-07-28T05:55:47;3.50;;;3.20;;
55065;SDS011;40964;42.114;24.220;2023-07-28T05:58:13;5.75;;;3.38;;
55065;SDS011;40964;42.114;24.220;2023-07-28T06:00:39;4.07;;;3.67;;
55065;SDS011;40964;42.114;24.220;2023-07-28T06:03:15;7.30;;;4.18;;
55065;SDS011;40964;42.114;24.220;2023-07-28T06:05:41;3.30;;;3.00;;
55065;SDS011;40964;42.114;24.220;2023-07-28T06:08:07;4.18;;;3.78;;
55065;SDS011;40964;42.114;24.220;2023-07-28T06:10:33;5.13;;;4.00;;
55065;SDS011;40964;42.114;24.220;2023-07-28T06:12:59;6.13;;;3.83;;
55065;SDS011;40964;42.114;24.220;2023-07-28T06:15:24;4.32;;;3.92;;
55065;SDS011;40964;42.114;24.220;2023-07-28T06:17:49;9.27;;;4.90;;
55065;SDS011;40964;42.114;24.220;2023-07-28T06:20:15;5.60;;;3.40;;
55065;SDS011;40964;42.114;24.220;2023-07-28T06:22:40;2.90;;;2.70;;
55065;SDS011;40964;42.114;24.220;2023-07-28T06:25:06;2.97;;;2.70;;
55065;SDS011;40964;42.114;24.220;2023-07-28T06:27:32;3.42;;;2.97;;
55065;SDS011;40964;42.114;24.220;2023-07-28T06:29:58;2.80;;;2.40;;
55065;SDS011;40964;42.114;24.220;2023-07-28T06:32:23;3.10;;;2.90;;
55065;SDS011;40964;42.114;24.220;2023-07-28T06:34:49;2.70;;;2.50;;
55065;SDS011;40964;42.114;24.220;2023-07-28T06:37:15;3.17;;;2.70;;
55065;SDS011;40964;42.114;24.220;2023-07-28T06:39:41;2.60;;;2.40;;
55065;SDS011;40964;42.114;24.220;2023-07-28T06:42:07;2.80;;;2.45;;
55065;SDS011;40964;42.114;24.220;2023-07-28T06:44:33;3.08;;;2.50;;
55065;SDS011;40964;42.114;24.220;2023-07-28T06:46:58;2.50;;;2.30;;
55065;SDS011;40964;42.114;24.220;2023-07-28T06:49:24;2.38;;;2.17;;
55065;SDS011;40964;42.114;24.220;2023-07-28T06:51:49;2.70;;;2.50;;
55065;SDS011;40964;42.114;24.220;2023-07-28T06:54:14;7.82;;;2.30;;
55065;SDS011;40964;42.114;24.220;2023-07-28T06:56:40;5.45;;;2.70;;
55065;SDS011;40964;42.114;24.220;2023-07-28T06:59:06;3.35;;;2.60;;
55065;SDS011;40964;42.114;24.220;2023-07-28T07:01:32;3.15;;;2.60;;
55065;SDS011;40964;42.114;24.220;2023-07-28T07:03:58;2.63;;;2.35;;
55065;SDS011;40964;42.114;24.220;2023-07-28T07:06:24;4.15;;;2.40;;
55065;SDS011;40964;42.114;24.220;2023-07-28T07:08:50;3.03;;;2.78;;
55065;SDS011;40964;42.114;24.220;2023-07-28T07:11:15;2.80;;;2.58;;
55065;SDS011;40964;42.114;24.220;2023-07-28T07:13:41;5.00;;;3.13;;
55065;SDS011;40964;42.114;24.220;2023-07-28T07:16:13;2.83;;;2.58;;
55065;SDS011;40964;42.114;24.220;2023-07-28T07:18:41;4.03;;;2.80;;
55065;SDS011;40964;42.114;24.220;2023-07-28T07:21:07;3.17;;;2.83;;
55065;SDS011;40964;42.114;24.220;2023-07-28T07:23:33;2.97;;;2.67;;
55065;SDS011;40964;42.114;24.220;2023-07-28T07:25:58;3.33;;;2.80;;
55065;SDS011;40964;42.114;24.220;2023-07-28T07:28:25;2.53;;;2.33;;
55065;SDS011;40964;42.114;24.220;2023-07-28T07:30:50;3.17;;;2.60;;
55065;SDS011;40964;42.114;24.220;2023-07-28T07:33:16;2.83;;;2.20;;
55065;SDS011;40964;42.114;24.220;2023-07-28T07:35:41;4.60;;;3.63;;
55065;SDS011;40964;42.114;24.220;2023-07-28T07:38:07;3.83;;;2.55;;
55065;SDS011;40964;42.114;24.220;2023-07-28T07:40:35;4.38;;;3.10;;
55065;SDS011;40964;42.114;24.220;2023-07-28T07:43:01;3.83;;;2.30;;
55065;SDS011;40964;42.114;24.220;2023-07-28T07:45:28;3.83;;;2.70;;
55065;SDS011;40964;42.114;24.220;2023-07-28T07:47:55;3.28;;;2.72;;
55065;SDS011;40964;42.114;24.220;2023-07-28T07:50:20;3.05;;;2.33;;
55065;SDS011;40964;42.114;24.220;2023-07-28T07:52:46;2.70;;;2.50;;
55065;SDS011;40964;42.114;24.220;2023-07-28T07:55:12;9.90;;;2.60;;
55065;SDS011;40964;42.114;24.220;2023-07-28T07:57:37;2.38;;;2.17;;
55065;SDS011;40964;42.114;24.220;2023-07-28T08:00:03;2.20;;;2.05;;
55065;SDS011;40964;42.114;24.220;2023-07-28T08:02:29;2.83;;;2.45;;
55065;SDS011;40964;42.114;24.220;2023-07-28T08:04:54;2.45;;;2.25;;
55065;SDS011;40964;42.114;24.220;2023-07-28T08:07:20;2.50;;;2.30;;
55065;SDS011;40964;42.114;24.220;2023-07-28T08:09:46;2.47;;;2.20;;
55065;SDS011;40964;42.114;24.220;2023-07-28T08:12:12;2.38;;;2.17;;
55065;SDS011;40964;42.114;24.220;2023-07-28T08:14:38;2.45;;;2.22;;
55065;SDS011;40964;42.114;24.220;2023-07-28T08:17:04;4.53;;;2.00;;
55065;SDS011;40964;42.114;24.220;2023-07-28T08:19:29;3.33;;;1.90;;
55065;SDS011;40964;42.114;24.220;2023-07-28T08:21:55;2.40;;;2.17;;
55065;SDS011;40964;42.114;24.220;2023-07-28T08:24:20;2.25;;;2.05;;
55065;SDS011;40964;42.114;24.220;2023-07-28T08:26:45;2.40;;;2.20;;
55065;SDS011;40964;42.114;24.220;2023-07-28T08:29:11;3.85;;;3.35;;
55065;SDS011;40964;42.114;24.220;2023-07-28T08:31:36;2.30;;;2.10;;
55065;SDS011;40964;42.114;24.220;2023-07-28T08:34:02;3.35;;;2.58;;
55065;SDS011;40964;42.114;24.220;2023-07-28T08:36:28;2.08;;;1.88;;
55065;SDS011;40964;42.114;24.220;2023-07-28T08:38:53;1.83;;;1.73;;
55065;SDS011;40964;42.114;24.220;2023-07-28T08:41:19;2.45;;;2.03;;
55065;SDS011;40964;42.114;24.220;2023-07-28T08:43:45;1.83;;;1.73;;
55065;SDS011;40964;42.114;24.220;2023-07-28T08:46:11;1.90;;;1.73;;
55065;SDS011;40964;42.114;24.220;2023-07-28T08:48:37;2.30;;;2.10;;
55065;SDS011;40964;42.114;24.220;2023-07-28T08:51:02;2.05;;;1.92;;
55065;SDS011;40964;42.114;24.220;2023-07-28T08:53:30;4.25;;;1.98;;
55065;SDS011;40964;42.114;24.220;2023-07-28T08:55:56;2.80;;;2.50;;
55065;SDS011;40964;42.114;24.220;2023-07-28T08:58:22;2.70;;;1.77;;
55065;SDS011;40964;42.114;24.220;2023-07-28T09:00:51;2.10;;;1.90;;
55065;SDS011;40964;42.114;24.220;2023-07-28T09:03:18;2.47;;;2.05;;
55065;SDS011;40964;42.114;24.220;2023-07-28T09:05:44;2.22;;;2.03;;
55065;SDS011;40964;42.114;24.220;2023-07-28T09:08:14;2.85;;;2.00;;
55065;SDS011;40964;42.114;24.220;2023-07-28T09:10:44;2.20;;;2.00;;
55065;SDS011;40964;42.114;24.220;2023-07-28T09:13:15;5.82;;;4.22;;
55065;SDS011;40964;42.114;24.220;2023-07-28T09:15:42;4.63;;;1.98;;
55065;SDS011;40964;42.114;24.220;2023-07-28T09:18:08;2.15;;;1.95;;
55065;SDS011;40964;42.114;24.220;2023-07-28T09:20:35;1.73;;;1.63;;
55065;SDS011;40964;42.114;24.220;2023-07-28T09:23:02;2.20;;;2.00;;
55065;SDS011;40964;42.114;24.220;2023-07-28T09:25:29;2.30;;;2.03;;
55065;SDS011;40964;42.114;24.220;2023-07-28T09:27:55;2.83;;;2.05;;
55065;SDS011;40964;42.114;24.220;2023-07-28T09:30:21;2.10;;;1.85;;
55065;SDS011;40964;42.114;24.220;2023-07-28T09:32:48;2.78;;;1.80;;
55065;SDS011;40964;42.114;24.220;2023-07-28T09:35:15;4.80;;;1.80;;
55065;SDS011;40964;42.114;24.220;2023-07-28T09:37:43;2.33;;;1.88;;
55065;SDS011;40964;42.114;24.220;2023-07-28T09:40:17;1.90;;;1.67;;
55065;SDS011;40964;42.114;24.220;2023-07-28T09:42:46;2.20;;;1.63;;
55065;SDS011;40964;42.114;24.220;2023-07-28T09:45:16;2.22;;;2.03;;
55065;SDS011;40964;42.114;24.220;2023-07-28T09:47:43;3.45;;;2.03;;
55065;SDS011;40964;42.114;24.220;2023-07-28T09:50:11;2.22;;;1.85;;
55065;SDS011;40964;42.114;24.220;2023-07-28T09:52:52;2.25;;;2.05;;
55065;SDS011;40964;42.114;24.220;2023-07-28T09:55:19;2.10;;;1.90;;
55065;SDS011;40964;42.114;24.220;2023-07-28T09:57:50;2.30;;;1.98;;
55065;SDS011;40964;42.114;24.220;2023-07-28T10:00:17;1.83;;;1.73;;
55065;SDS011;40964;42.114;24.220;2023-07-28T10:02:44;2.70;;;2.10;;
55065;SDS011;40964;42.114;24.220;2023-07-28T10:05:10;3.35;;;1.90;;
55065;SDS011;40964;42.114;24.220;2023-07-28T10:07:38;1.77;;;1.67;;
55065;SDS011;40964;42.114;24.220;2023-07-28T10:10:04;1.80;;;1.70;;
55065;SDS011;40964;42.114;24.220;2023-07-28T10:12:42;2.10;;;1.90;;
55065;SDS011;40964;42.114;24.220;2023-07-28T10:15:14;2.08;;;1.90;;
55065;SDS011;40964;42.114;24.220;2023-07-28T10:17:43;2.65;;;1.90;;
55065;SDS011;40964;42.114;24.220;2023-07-28T10:20:28;3.08;;;2.15;;
55065;SDS011;40964;42.114;24.220;2023-07-28T10:22:54;3.03;;;2.72;;
55065;SDS011;40964;42.114;24.220;2023-07-28T10:25:26;2.72;;;2.25;;
55065;SDS011;40964;42.114;24.220;2023-07-28T10:27:52;2.00;;;1.80;;
55065;SDS011;40964;42.114;24.220;2023-07-28T10:30:19;2.08;;;1.88;;
55065;SDS011;40964;42.114;24.220;2023-07-28T10:32:45;2.20;;;2.00;;
55065;SDS011;40964;42.114;24.220;2023-07-28T10:35:23;2.30;;;2.10;;
55065;SDS011;40964;42.114;24.220;2023-07-28T10:37:52;2.92;;;2.13;;
55065;SDS011;40964;42.114;24.220;2023-07-28T10:40:22;4.13;;;1.88;;
55065;SDS011;40964;42.114;24.220;2023-07-28T10:42:53;1.98;;;1.83;;
55065;SDS011;40964;42.114;24.220;2023-07-28T10:45:21;2.53;;;2.00;;
55065;SDS011;40964;42.114;24.220;2023-07-28T10:47:48;2.53;;;1.83;;
55065;SDS011;40964;42.114;24.220;2023-07-28T10:50:13;1.88;;;1.65;;
55065;SDS011;40964;42.114;24.220;2023-07-28T10:52:39;3.17;;;1.95;;
55065;SDS011;40964;42.114;24.220;2023-07-28T10:55:11;2.17;;;1.92;;
55065;SDS011;40964;42.114;24.220;2023-07-28T10:57:38;2.35;;;2.05;;
55065;SDS011;40964;42.114;24.220;2023-07-28T11:00:04;1.85;;;1.75;;
55065;SDS011;40964;42.114;24.220;2023-07-28T11:02:30;1.90;;;1.70;;
55065;SDS011;40964;42.114;24.220;2023-07-28T11:04:56;3.42;;;2.85;;
55065;SDS011;40964;42.114;24.220;2023-07-28T11:07:21;3.15;;;2.65;;
55065;SDS011;40964;42.114;24.220;2023-07-28T11:09:47;2.38;;;1.60;;
55065;SDS011;40964;42.114;24.220;2023-07-28T11:12:13;3.65;;;1.83;;
55065;SDS011;40964;42.114;24.220;2023-07-28T11:14:39;2.40;;;2.00;;
55065;SDS011;40964;42.114;24.220;2023-07-28T11:17:05;1.90;;;1.80;;
55065;SDS011;40964;42.114;24.220;2023-07-28T11:19:30;3.78;;;1.70;;
55065;SDS011;40964;42.114;24.220;2023-07-28T11:21:56;1.92;;;1.75;;
55065;SDS011;40964;42.114;24.220;2023-07-28T11:24:23;2.00;;;1.80;;
55065;SDS011;40964;42.114;24.220;2023-07-28T11:26:49;2.90;;;1.80;;
55065;SDS011;40964;42.114;24.220;2023-07-28T11:29:14;2.45;;;2.00;;
55065;SDS011;40964;42.114;24.220;2023-07-28T11:31:41;2.08;;;1.88;;
55065;SDS011;40964;42.114;24.220;2023-07-28T11:34:16;1.90;;;1.80;;
55065;SDS011;40964;42.114;24.220;2023-07-28T11:36:43;3.63;;;2.03;;
55065;SDS011;40964;42.114;24.220;2023-07-28T11:39:08;2.10;;;1.80;;
55065;SDS011;40964;42.114;24.220;2023-07-28T11:41:35;2.28;;;2.08;;
55065;SDS011;40964;42.114;24.220;2023-07-28T11:44:01;2.83;;;2.10;;
55065;SDS011;40964;42.114;24.220;2023-07-28T11:46:37;2.20;;;2.00;;
55065;SDS011;40964;42.114;24.220;2023-07-28T11:51:40;2.20;;;2.00;;
55065;SDS011;40964;42.114;24.220;2023-07-28T11:54:10;2.10;;;1.90;;
55065;SDS011;40964;42.114;24.220;2023-07-28T11:56:40;2.60;;;2.00;;
55065;SDS011;40964;42.114;24.220;2023-07-28T11:59:09;4.82;;;2.10;;
55065;SDS011;40964;42.114;24.220;2023-07-28T12:01:50;2.88;;;2.13;;
55065;SDS011;40964;42.114;24.220;2023-07-28T12:04:26;3.42;;;2.55;;
55065;SDS011;40964;42.114;24.220;2023-07-28T12:07:02;3.10;;;2.05;;
55065;SDS011;40964;42.114;24.220;2023-07-28T12:09:48;3.08;;;2.00;;
55065;SDS011;40964;42.114;24.220;2023-07-28T12:12:19;6.18;;;2.65;;
55065;SDS011;40964;42.114;24.220;2023-07-28T12:14:46;2.28;;;2.08;;
55065;SDS011;40964;42.114;24.220;2023-07-28T12:17:15;2.83;;;2.10;;
55065;SDS011;40964;42.114;24.220;2023-07-28T12:22:36;2.88;;;1.90;;
55065;SDS011;40964;42.114;24.220;2023-07-28T12:25:03;2.30;;;2.10;;
55065;SDS011;40964;42.114;24.220;2023-07-28T12:27:29;2.78;;;2.00;;
55065;SDS011;40964;42.114;24.220;2023-07-28T12:29:55;2.10;;;2.00;;
55065;SDS011;40964;42.114;24.220;2023-07-28T12:32:21;2.60;;;2.33;;
55065;SDS011;40964;42.114;24.220;2023-07-28T12:34:47;2.95;;;2.10;;
55065;SDS011;40964;42.114;24.220;2023-07-28T12:37:13;2.72;;;2.15;;
55065;SDS011;40964;42.114;24.220;2023-07-28T12:39:39;2.70;;;2.03;;
55065;SDS011;40964;42.114;24.220;2023-07-28T12:42:08;3.45;;;1.80;;
55065;SDS011;40964;42.114;24.220;2023-07-28T12:44:34;3.80;;;1.85;;
55065;SDS011;40964;42.114;24.220;2023-07-28T12:47:00;2.03;;;1.83;;
55065;SDS011;40964;42.114;24.220;2023-07-28T12:49:26;1.95;;;1.85;;
55065;SDS011;40964;42.114;24.220;2023-07-28T12:51:54;2.28;;;1.80;;
55065;SDS011;40964;42.114;24.220;2023-07-28T12:54:21;2.40;;;2.05;;
55065;SDS011;40964;42.114;24.220;2023-07-28T12:56:47;2.38;;;2.17;;
55065;SDS011;40964;42.114;24.220;2023-07-28T12:59:13;2.25;;;1.77;;
55065;SDS011;40964;42.114;24.220;2023-07-28T13:01:39;2.40;;;2.20;;
55065;SDS011;40964;42.114;24.220;2023-07-28T13:04:06;2.28;;;2.08;;
55065;SDS011;40964;42.114;24.220;2023-07-28T13:06:31;2.65;;;1.98;;
55065;SDS011;40964;42.114;24.220;2023-07-28T13:08:57;2.10;;;1.90;;
55065;SDS011;40964;42.114;24.220;2023-07-28T13:11:22;7.32;;;5.47;;
55065;SDS011;40964;42.114;24.220;2023-07-28T13:13:47;2.28;;;2.00;;
55065;SDS011;40964;42.114;24.220;2023-07-28T13:16:13;4.20;;;1.85;;
55065;SDS011;40964;42.114;24.220;2023-07-28T13:18:39;1.95;;;1.77;;
55065;SDS011;40964;42.114;24.220;2023-07-28T13:21:05;2.20;;;2.00;;
55065;SDS011;40964;42.114;24.220;2023-07-28T13:23:31;4.43;;;2.10;;
55065;SDS011;40964;42.114;24.220;2023-07-28T13:25:57;2.42;;;2.20;;
55065;SDS011;40964;42.114;24.220;2023-07-28T13:28:23;3.00;;;2.00;;
55065;SDS011;40964;42.114;24.220;2023-07-28T13:30:50;2.50;;;2.30;;
55065;SDS011;40964;42.114;24.220;2023-07-28T13:33:16;2.13;;;1.92;;
55065;SDS011;40964;42.114;24.220;2023-07-28T13:35:41;2.13;;;1.92;;
55065;SDS011;40964;42.114;24.220;2023-07-28T13:38:07;2.13;;;1.92;;
55065;SDS011;40964;42.114;24.220;2023-07-28T13:40:32;2.45;;;2.25;;
55065;SDS011;40964;42.114;24.220;2023-07-28T13:42:58;2.90;;;1.90;;
55065;SDS011;40964;42.114;24.220;2023-07-28T13:45:23;3.30;;;2.13;;
55065;SDS011;40964;42.114;24.220;2023-07-28T13:47:49;3.15;;;2.03;;
55065;SDS011;40964;42.114;24.220;2023-07-28T13:50:14;2.47;;;2.00;;
55065;SDS011;40964;42.114;24.220;2023-07-28T13:52:40;5.03;;;1.95;;
55065;SDS011;40964;42.114;24.220;2023-07-28T13:55:05;2.28;;;2.08;;
55065;SDS011;40964;42.114;24.220;2023-07-28T13:57:31;2.05;;;1.90;;
55065;SDS011;40964;42.114;24.220;2023-07-28T13:59:57;2.10;;;1.90;;
55065;SDS011;40964;42.114;24.220;2023-07-28T14:02:23;2.40;;;2.20;;
55065;SDS011;40964;42.114;24.220;2023-07-28T14:04:48;1.73;;;1.63;;
55065;SDS011;40964;42.114;24.220;2023-07-28T14:07:15;3.35;;;2.10;;
55065;SDS011;40964;42.114;24.220;2023-07-28T14:09:41;3.78;;;2.10;;
55065;SDS011;40964;42.114;24.220;2023-07-28T14:12:07;2.30;;;2.00;;
55065;SDS011;40964;42.114;24.220;2023-07-28T14:14:32;2.38;;;2.00;;
55065;SDS011;40964;42.114;24.220;2023-07-28T14:16:58;2.67;;;2.20;;
55065;SDS011;40964;42.114;24.220;2023-07-28T14:19:23;2.13;;;2.03;;
55065;SDS011;40964;42.114;24.220;2023-07-28T14:21:49;2.30;;;2.10;;
55065;SDS011;40964;42.114;24.220;2023-07-28T14:24:14;4.28;;;1.92;;
55065;SDS011;40964;42.114;24.220;2023-07-28T14:26:40;2.55;;;2.00;;
55065;SDS011;40964;42.114;24.220;2023-07-28T14:29:05;2.20;;;1.90;;
55065;SDS011;40964;42.114;24.220;2023-07-28T14:31:31;2.50;;;2.13;;
55065;SDS011;40964;42.114;24.220;2023-07-28T14:33:56;3.67;;;2.15;;
55065;SDS011;40964;42.114;24.220;2023-07-28T14:36:22;2.53;;;2.15;;
55065;SDS011;40964;42.114;24.220;2023-07-28T14:38:48;2.10;;;1.90;;
55065;SDS011;40964;42.114;24.220;2023-07-28T14:41:13;2.60;;;2.20;;